Time;durP1;ratioP1;P1;durP2;ratioP2;P2;SDS_P1;SDS_P2;PMS_P1;PMS_P2;Temp;Humidity;BMP_temperature;BMP_pressure;BME280_temperature;BME280_humidity;BME280_pressure;Samples;Min_cycle;Max_cycle;Signal;HPM_P1;HPM_P2
2021/07/14 00:00:18;;;;;;;6.60;4.65;;;;;;;8.27;89.45;90384.09;5015548;28;20026;-85
2021/07/14 00:02:56;;;;;;;7.57;4.43;;;;;;;8.23;88.81;90391.78;5015128;28;20097;-85
2021/07/14 00:05:31;;;;;;;5.93;4.70;;;;;;;8.31;89.49;90397.97;5015115;28;20029;-85
2021/07/14 00:08:11;;;;;;;7.15;4.88;;;;;;;8.33;90.20;90393.19;5046980;28;20037;-86
2021/07/14 00:10:47;;;;;;;7.00;5.13;;;;;;;8.48;89.88;90376.22;5030946;28;20108;-85
2021/07/14 00:24:25;;;;;;;7.00;4.95;;;;;;;8.49;90.40;90365.50;5032712;28;20041;-85
2021/07/14 00:27:06;;;;;;;6.15;4.75;;;;;;;8.41;90.05;90343.03;5022168;28;20046;-85
2021/07/14 00:29:36;;;;;;;8.00;4.35;;;;;;;8.41;90.00;90352.63;5048167;28;20036;-86
2021/07/14 00:32:16;;;;;;;7.43;4.40;;;;;;;8.42;89.32;90357.53;5016920;28;20164;-87
2021/07/14 00:34:53;;;;;;;7.00;4.65;;;;;;;8.42;89.15;90364.56;5000446;28;20030;-86
2021/07/14 00:37:26;;;;;;;6.50;3.83;;;;;;;8.38;88.99;90361.84;5033030;28;20025;-87
2021/07/14 00:40:01;;;;;;;7.80;4.47;;;;;;;8.29;88.96;90363.78;5031532;28;20025;-87
2021/07/14 00:42:34;;;;;;;;;;;;;;;8.33;89.11;90367.97;4981945;28;20593;-86
2021/07/14 00:45:13;;;;;;;7.18;4.38;;;;;;;8.36;88.76;90363.97;5013832;28;20436;-87
2021/07/14 00:47:56;;;;;;;6.78;4.50;;;;;;;8.35;89.03;90372.88;5029698;28;20034;-86
2021/07/14 00:50:33;;;;;;;10.00;4.30;;;;;;;8.35;89.22;90375.47;5016064;28;20041;-85
2021/07/14 00:53:09;;;;;;;7.75;4.38;;;;;;;8.34;89.33;90371.34;5017184;28;20026;-87
2021/07/14 00:55:51;;;;;;;6.97;5.25;;;;;;;8.40;90.66;90377.09;5032092;28;20410;-86
2021/07/14 00:58:27;;;;;;;6.35;5.00;;;;;;;8.42;90.31;90380.88;5017445;28;20030;-87
2021/07/14 01:01:08;;;;;;;7.88;4.97;;;;;;;8.48;89.88;90379.59;5016731;28;20033;-87
2021/07/14 01:03:45;;;;;;;8.10;5.22;;;;;;;8.41;90.97;90369.00;5016998;28;20030;-85
2021/07/14 01:06:19;;;;;;;6.40;4.82;;;;;;;8.50;90.39;90381.84;5002026;28;20026;-85
2021/07/14 01:09:11;;;;;;;6.68;4.88;;;;;;;8.62;89.97;90379.22;5018238;28;20060;-87
2021/07/14 01:11:50;;;;;;;9.30;5.10;;;;;;;8.71;89.94;90379.09;5017431;28;20310;-86
2021/07/14 01:14:29;;;;;;;11.70;5.00;;;;;;;8.65;89.65;90380.41;5001647;28;20026;-86
2021/07/14 01:17:13;;;;;;;7.47;5.35;;;;;;;8.64;89.96;90369.25;5018270;28;20030;-87
2021/07/14 01:20:12;;;;;;;6.70;4.67;;;;;;;8.63;90.38;90369.59;5002354;28;20034;-85
2021/07/14 01:23:06;;;;;;;7.50;4.72;;;;;;;8.64;90.35;90365.91;5007322;28;20260;-87
2021/07/14 01:26:02;;;;;;;6.75;5.07;;;;;;;8.68;90.38;90366.75;5006651;28;20041;-86
2021/07/14 01:28:41;;;;;;;11.07;5.07;;;;;;;8.73;90.45;90369.16;5035824;28;20041;-87
2021/07/14 01:31:22;;;;;;;6.82;4.35;;;;;;;8.69;90.60;90373.47;5002177;28;20030;-87
2021/07/14 01:33:53;;;;;;;9.15;4.28;;;;;;;8.69;89.93;90381.25;5003934;28;20060;-87
2021/07/14 01:36:25;;;;;;;6.00;4.40;;;;;;;8.58;89.99;90379.09;5002830;28;20026;-87
2021/07/14 01:39:05;;;;;;;6.13;4.38;;;;;;;8.71;89.37;90379.09;5023958;28;20049;-85
2021/07/14 01:41:41;;;;;;;8.05;5.07;;;;;;;8.73;90.06;90374.34;5013785;28;20124;-85
2021/07/14 01:44:18;;;;;;;9.07;5.03;;;;;;;8.67;90.26;90375.66;4989981;28;20033;-86
2021/07/14 01:46:58;;;;;;;7.88;5.03;;;;;;;8.69;91.02;90363.06;5001904;28;20026;-87
2021/07/14 01:49:37;;;;;;;8.93;5.20;;;;;;;8.65;90.75;90362.22;5001293;28;20036;-87
2021/07/14 01:52:16;;;;;;;8.43;5.38;;;;;;;8.67;91.26;90370.44;5050257;28;20030;-87
2021/07/14 01:54:53;;;;;;;6.25;4.88;;;;;;;8.76;91.20;90369.25;5034253;28;20042;-86
2021/07/14 01:57:36;;;;;;;7.57;5.00;;;;;;;8.81;90.48;90371.59;5018481;28;20042;-87
2021/07/14 02:00:15;;;;;;;6.43;4.88;;;;;;;8.84;90.63;90370.94;5034117;28;20021;-87
2021/07/14 02:03:05;;;;;;;10.80;5.20;;;;;;;8.76;91.05;90381.44;5031864;28;20022;-86
2021/07/14 02:05:46;;;;;;;8.02;5.30;;;;;;;8.82;91.32;90387.94;5037135;28;20089;-86
2021/07/14 02:08:20;;;;;;;6.50;4.85;;;;;;;8.88;90.63;90381.44;5032881;28;20041;-85
2021/07/14 02:11:01;;;;;;;9.50;5.40;;;;;;;8.85;91.19;90389.88;5013855;28;20101;-86
2021/07/14 02:13:33;;;;;;;9.07;6.30;;;;;;;8.88;91.32;90391.81;5030116;28;20033;-85
2021/07/14 02:16:11;;;;;;;13.60;5.90;;;;;;;8.94;91.43;90394.94;5014360;28;20021;-86
2021/07/14 02:18:47;;;;;;;9.38;5.53;;;;;;;8.99;91.20;90392.13;5014020;28;20045;-86
2021/07/14 02:21:27;;;;;;;9.95;5.65;;;;;;;9.08;90.94;90388.31;5014261;28;20026;-86
2021/07/14 02:24:04;;;;;;;9.35;6.00;;;;;;;8.99;91.31;90372.06;5030766;28;20050;-86
2021/07/14 02:26:47;;;;;;;18.08;6.50;;;;;;;9.08;90.96;90370.09;5010902;28;20462;-87
2021/07/14 02:29:24;;;;;;;10.35;6.22;;;;;;;9.07;91.71;90367.81;4995422;28;20061;-86
2021/07/14 02:31:59;;;;;;;11.88;6.10;;;;;;;9.01;91.51;90358.75;4980324;28;20445;-86
2021/07/14 02:34:31;;;;;;;;;;;;;;;9.25;90.95;90353.44;5007166;28;20034;-87
2021/07/14 02:37:10;;;;;;;11.25;5.07;;;;;;;9.12;90.74;90353.81;5032557;28;20000;-86
2021/07/14 02:39:46;;;;;;;6.80;4.63;;;;;;;9.14;89.53;90359.47;4996022;28;20033;-85
2021/07/14 02:42:25;;;;;;;8.73;5.50;;;;;;;9.01;90.43;90359.53;4996875;28;20079;-84
2021/07/14 02:45:00;;;;;;;10.50;6.53;;;;;;;9.02;90.75;90370.66;4997589;28;20026;-85
2021/07/14 02:47:41;;;;;;;8.75;5.15;;;;;;;9.03;91.15;90372.94;4996277;28;20036;-85
2021/07/14 02:50:22;;;;;;;9.15;5.40;;;;;;;9.04;91.08;90374.44;5009175;28;20120;-85
2021/07/14 02:52:59;;;;;;;10.10;5.65;;;;;;;9.05;91.03;90372.59;4992111;28;20030;-85
2021/07/14 02:55:36;;;;;;;9.25;5.90;;;;;;;9.04;91.31;90371.84;4976801;28;20026;-85
2021/07/14 02:58:14;;;;;;;7.75;5.68;;;;;;;9.08;91.28;90377.91;5025396;28;20030;-85
2021/07/14 03:00:53;;;;;;;11.75;5.78;;;;;;;9.13;91.36;90381.34;5008801;28;20050;-85
2021/07/14 03:03:29;;;;;;;8.55;6.43;;;;;;;9.21;91.17;90388.25;5045397;23;20018;-85
2021/07/14 03:06:09;;;;;;;10.98;6.07;;;;;;;9.22;91.40;90390.53;4984136;28;20045;-86
2021/07/14 03:08:46;;;;;;;16.13;6.57;;;;;;;9.21;91.50;90377.84;4971163;28;20022;-86
2021/07/14 03:11:23;;;;;;;9.90;6.60;;;;;;;9.28;91.25;90372.81;4971370;28;20030;-87
2021/07/14 03:14:01;;;;;;;11.90;6.53;;;;;;;9.35;91.26;90375.59;4967523;28;20495;-86
2021/07/14 03:16:40;;;;;;;9.88;5.38;;;;;;;9.30;91.32;90381.06;4948823;28;20036;-87
2021/07/14 03:19:18;;;;;;;9.30;5.90;;;;;;;9.25;91.38;90378.69;4947825;29;20028;-87
2021/07/14 03:21:51;;;;;;;15.40;5.97;;;;;;;9.28;91.49;90380.63;4948055;28;20122;-86
2021/07/14 03:24:27;;;;;;;8.85;5.90;;;;;;;9.34;91.24;90371.50;4948063;29;20035;-86
2021/07/14 03:27:03;;;;;;;13.13;5.93;;;;;;;9.26;91.54;90380.97;4950825;29;20023;-87
2021/07/14 03:29:30;;;;;;;10.05;6.00;;;;;;;9.26;91.67;90375.78;4936162;29;20126;-87
2021/07/14 03:32:10;;;;;;;8.90;6.38;;;;;;;9.32;91.42;90378.88;4951312;28;20029;-86
2021/07/14 03:34:47;;;;;;;9.48;5.88;;;;;;;9.26;91.26;90375.00;4937364;28;20027;-86
2021/07/14 03:37:23;;;;;;;9.65;5.88;;;;;;;9.26;91.20;90362.03;4951667;29;20039;-86
2021/07/14 03:40:00;;;;;;;7.57;5.53;;;;;;;9.30;91.17;90355.06;4951425;29;20027;-86
2021/07/14 03:42:37;;;;;;;8.65;6.05;;;;;;;9.26;91.19;90357.56;4936542;29;20058;-86
2021/07/14 03:45:13;;;;;;;12.80;6.03;;;;;;;9.28;91.23;90365.03;4951992;28;20060;-86
2021/07/14 03:47:48;;;;;;;8.93;5.63;;;;;;;9.28;91.25;90359.81;4936089;29;20123;-86
2021/07/14 03:50:25;;;;;;;8.07;5.05;;;;;;;9.29;91.22;90361.31;4935926;29;20028;-86
2021/07/14 03:53:02;;;;;;;9.25;6.20;;;;;;;9.30;91.38;90362.84;4936276;29;20019;-86
2021/07/14 03:55:39;;;;;;;9.02;5.90;;;;;;;9.34;91.21;90361.09;4952294;28;20059;-86
2021/07/14 03:58:19;;;;;;;8.90;6.15;;;;;;;9.35;91.28;90360.00;4936808;29;20027;-86
2021/07/14 04:00:56;;;;;;;7.75;5.60;;;;;;;9.37;91.00;90360.44;4936392;28;20027;-86
2021/07/14 04:03:34;;;;;;;9.30;6.38;;;;;;;9.42;91.58;90356.81;4932975;29;20027;-86
2021/07/14 04:06:10;;;;;;;10.82;5.93;;;;;;;9.50;90.76;90348.84;4950710;28;20024;-86
2021/07/14 04:09:13;;;;;;;11.63;6.18;;;;;;;9.46;90.71;90353.22;4935849;28;20031;-86
2021/07/14 04:11:49;;;;;;;9.25;5.65;;;;;;;9.47;90.66;90357.34;4960542;28;20063;-86
2021/07/14 04:14:32;;;;;;;8.68;5.97;;;;;;;9.48;91.06;90353.66;4950992;28;20428;-86
2021/07/14 04:17:11;;;;;;;9.45;6.45;;;;;;;9.48;91.37;90351.06;4971554;28;20035;-86
2021/07/14 04:19:50;;;;;;;14.02;6.97;;;;;;;9.61;90.58;90364.75;4939602;29;20027;-86
2021/07/14 04:22:25;;;;;;;10.15;6.25;;;;;;;9.64;90.86;90358.09;4938948;28;20035;-86
2021/07/14 04:25:01;;;;;;;13.02;6.68;;;;;;;9.74;90.63;90362.81;4971265;28;20027;-86
2021/07/14 04:27:37;;;;;;;12.05;6.65;;;;;;;9.67;90.86;90367.84;4970674;28;20031;-86
2021/07/14 04:30:17;;;;;;;12.38;6.82;;;;;;;9.65;91.23;90362.25;4970164;28;20028;-86
2021/07/14 04:32:59;;;;;;;9.18;6.72;;;;;;;9.73;90.89;90358.72;4984362;28;20588;-86
2021/07/14 04:35:36;;;;;;;10.05;6.85;;;;;;;9.82;90.80;90364.47;4986156;28;20035;-86
2021/07/14 04:38:08;;;;;;;12.82;7.70;;;;;;;9.81;90.62;90363.72;4970553;28;20023;-86
2021/07/14 04:40:45;;;;;;;11.85;6.45;;;;;;;9.93;90.54;90362.13;4955505;28;20034;-87
2021/07/14 04:43:27;;;;;;;11.70;7.53;;;;;;;9.85;90.47;90363.06;4954354;28;20023;-86
2021/07/14 04:46:07;;;;;;;11.82;6.90;;;;;;;9.90;90.47;90368.03;4986214;28;20027;-86
2021/07/14 04:48:47;;;;;;;10.60;6.68;;;;;;;9.98;90.05;90362.66;4954343;29;20068;-86
2021/07/14 04:51:26;;;;;;;9.05;6.38;;;;;;;10.02;89.89;90357.53;4984543;28;20082;-87
2021/07/14 04:53:52;;;;;;;12.40;6.80;;;;;;;10.07;89.56;90359.88;4969018;28;20499;-85
2021/07/14 04:56:33;;;;;;;11.02;7.32;;;;;;;10.14;89.30;90362.66;4938158;28;20066;-87
2021/07/14 04:59:15;;;;;;;11.05;5.88;;;;;;;10.28;88.81;90357.00;4954239;29;20055;-86
2021/07/14 05:01:53;;;;;;;9.65;6.60;;;;;;;10.28;88.81;90355.19;4954121;28;20073;-86
2021/07/14 05:04:32;;;;;;;9.00;5.85;;;;;;;10.42;88.40;90348.75;4938869;28;20031;-86
2021/07/14 05:07:06;;;;;;;9.10;6.40;;;;;;;10.43;88.32;90351.03;4954925;28;20023;-86
2021/07/14 05:09:38;;;;;;;;;;;;;;;10.45;89.12;90361.09;4985889;28;20031;-87
2021/07/14 05:12:15;;;;;;;9.85;6.20;;;;;;;10.55;88.08;90368.38;4955197;28;19915;-87
2021/07/14 05:14:51;;;;;;;7.65;6.30;;;;;;;10.53;88.64;90366.13;4938375;29;20031;-87
2021/07/14 05:17:29;;;;;;;11.55;6.82;;;;;;;10.57;89.17;90378.47;4955048;28;20052;-86
2021/07/14 05:20:13;;;;;;;11.45;7.60;;;;;;;10.58;89.17;90366.97;4953707;29;20023;-86
2021/07/14 05:22:44;;;;;;;11.40;6.57;;;;;;;10.74;88.67;90375.47;4969208;28;20034;-85
2021/07/14 05:25:24;;;;;;;10.15;5.93;;;;;;;10.72;88.02;90364.66;4984369;28;20038;-86
2021/07/14 05:27:57;;;;;;;10.05;6.90;;;;;;;10.68;89.58;90366.44;4953013;28;20540;-86
2021/07/14 05:30:34;;;;;;;9.40;6.10;;;;;;;10.80;88.19;90358.47;4943988;29;20059;-87
2021/07/14 05:33:18;;;;;;;12.98;5.80;;;;;;;10.84;87.21;90364.50;4938525;29;20025;-86
2021/07/14 05:35:52;;;;;;;;;;;;;;;11.11;86.25;90364.66;4953691;28;20483;-87
2021/07/14 05:38:25;;;;;;;13.23;6.43;;;;;;;11.11;86.34;90349.03;4953719;28;20363;-86
2021/07/14 05:41:04;;;;;;;10.85;6.13;;;;;;;10.99;86.96;90358.50;4953114;29;20543;-86
2021/07/14 05:43:43;;;;;;;11.23;6.22;;;;;;;11.01;87.13;90358.88;4939497;29;20027;-85
2021/07/14 05:46:21;;;;;;;8.00;5.80;;;;;;;11.01;87.72;90364.09;4937815;28;20578;-86
2021/07/14 05:48:48;;;;;;;9.43;6.10;;;;;;;10.97;88.02;90368.50;4936730;29;20082;-86
2021/07/14 05:51:17;;;;;;;12.23;7.10;;;;;;;10.91;88.42;90367.25;4964828;28;20027;-86
2021/07/14 05:53:42;;;;;;;12.38;6.90;;;;;;;10.91;87.84;90363.91;4952909;28;20043;-87
2021/07/14 05:56:09;;;;;;;8.30;5.53;;;;;;;10.94;86.27;90366.56;4952623;29;20098;-85
2021/07/14 05:58:39;;;;;;;7.47;5.22;;;;;;;11.11;85.90;90364.66;4936474;29;20023;-86
2021/07/14 06:01:05;;;;;;;10.15;5.78;;;;;;;11.16;87.40;90372.19;4984433;28;20031;-86
2021/07/14 06:03:32;;;;;;;7.97;5.70;;;;;;;11.08;85.35;90373.16;4952105;29;20118;-86
2021/07/14 06:05:59;;;;;;;8.77;5.50;;;;;;;11.13;85.48;90365.84;4952560;29;20023;-87
2021/07/14 06:08:30;;;;;;;10.30;5.32;;;;;;;11.22;85.51;90368.22;4943157;29;20082;-87
2021/07/14 06:10:58;;;;;;;8.63;5.88;;;;;;;11.18;86.25;90365.56;4952041;29;20023;-86
2021/07/14 06:13:28;;;;;;;8.60;5.53;;;;;;;11.13;86.18;90357.22;4951884;28;20038;-87
2021/07/14 06:15:55;;;;;;;11.55;6.60;;;;;;;11.23;87.26;90367.88;4952370;28;20027;-87
2021/07/14 06:18:24;;;;;;;12.20;5.60;;;;;;;11.28;85.85;90355.66;4952131;28;20027;-87
2021/07/14 06:20:53;;;;;;;9.00;6.03;;;;;;;11.38;86.56;90366.28;4935978;29;20031;-87
2021/07/14 06:23:19;;;;;;;10.20;6.05;;;;;;;11.47;85.28;90353.78;4952576;29;20031;-86
2021/07/14 06:25:52;;;;;;;7.53;4.97;;;;;;;11.49;84.11;90359.41;4943818;29;20035;-85
2021/07/14 06:28:20;;;;;;;10.13;5.22;;;;;;;11.58;84.96;90361.03;4919560;29;20110;-85
2021/07/14 06:30:47;;;;;;;11.73;6.90;;;;;;;11.62;87.65;90365.19;4933606;29;20611;-85
2021/07/14 06:33:22;;;;;;;9.85;5.93;;;;;;;11.75;86.63;90373.63;4933865;29;20070;-85
2021/07/14 06:35:52;;;;;;;10.15;5.45;;;;;;;11.82;85.56;90367.78;4934562;29;20036;-86
2021/07/14 06:38:19;;;;;;;12.35;6.00;;;;;;;12.07;82.95;90370.81;4933880;29;20039;-86
2021/07/14 06:40:46;;;;;;;8.35;4.85;;;;;;;11.79;81.58;90365.88;4946276;29;20106;-85
2021/07/14 06:43:20;;;;;;;7.28;4.80;;;;;;;11.91;83.39;90371.72;4968704;28;20070;-86
2021/07/14 06:45:50;;;;;;;7.70;5.13;;;;;;;12.10;82.88;90370.13;4968903;28;20057;-86
2021/07/14 06:48:18;;;;;;;7.60;4.60;;;;;;;12.38;80.47;90375.78;4984513;28;20526;-85
2021/07/14 06:50:45;;;;;;;6.10;4.03;;;;;;;12.51;78.80;90372.94;4983043;28;20086;-86
2021/07/14 06:53:15;;;;;;;8.98;4.13;;;;;;;12.45;79.36;90377.75;4969235;28;20047;-85
2021/07/14 06:55:41;;;;;;;7.90;4.25;;;;;;;12.41;81.22;90377.69;4967852;28;20035;-87
2021/07/14 06:58:12;;;;;;;12.52;4.90;;;;;;;12.53;80.13;90378.59;4984000;28;20027;-86
2021/07/14 07:00:40;;;;;;;11.48;5.70;;;;;;;12.78;79.25;90378.94;4952349;28;20483;-84
2021/07/14 07:03:12;;;;;;;7.55;3.70;;;;;;;13.03;78.06;90393.06;4952688;28;20086;-85
2021/07/14 07:05:40;;;;;;;5.10;3.47;;;;;;;13.06;75.91;90395.00;4953300;29;20019;-86
2021/07/14 07:08:13;;;;;;;4.88;3.60;;;;;;;13.07;77.55;90400.97;4937602;28;20045;-87
2021/07/14 07:10:40;;;;;;;5.65;3.33;;;;;;;13.11;75.39;90394.69;4953638;28;20059;-85
2021/07/14 07:13:06;;;;;;;7.75;3.47;;;;;;;13.32;75.24;90407.31;4937484;29;20038;-86
2021/07/14 07:15:31;;;;;;;6.05;2.83;;;;;;;13.15;76.73;90392.88;4953170;29;20039;-85
2021/07/14 07:17:57;;;;;;;7.13;3.30;;;;;;;12.82;75.61;90396.16;4951818;28;20027;-85
2021/07/14 07:20:22;;;;;;;6.03;2.67;;;;;;;12.91;75.63;90391.44;4969329;28;20020;-85
2021/07/14 07:22:48;;;;;;;8.70;3.40;;;;;;;13.11;76.83;90401.78;4937422;29;20035;-86
2021/07/14 07:25:13;;;;;;;5.28;3.20;;;;;;;13.05;76.07;90397.97;4950020;28;20043;-85
2021/07/14 07:27:39;;;;;;;4.30;2.67;;;;;;;13.05;73.94;90403.19;4937187;29;20423;-85
2021/07/14 07:30:06;;;;;;;3.80;2.72;;;;;;;12.96;74.54;90406.06;4936829;28;20031;-86
2021/07/14 07:32:31;;;;;;;4.22;2.90;;;;;;;12.82;77.05;90395.41;4952791;29;20027;-85
2021/07/14 07:34:57;;;;;;;3.83;2.95;;;;;;;12.64;77.47;90400.41;4953120;29;20031;-86
2021/07/14 07:37:23;;;;;;;4.93;2.97;;;;;;;12.60;77.34;90404.84;4951357;28;20031;-85
2021/07/14 07:39:49;;;;;;;4.75;2.83;;;;;;;12.80;78.85;90406.25;4987149;28;20031;-86
2021/07/14 07:42:16;;;;;;;4.75;2.90;;;;;;;12.68;78.98;90414.28;4972199;28;20027;-86
2021/07/14 07:44:44;;;;;;;5.38;2.42;;;;;;;12.65;75.92;90412.38;4971771;28;20027;-85
2021/07/14 07:47:10;;;;;;;5.25;2.90;;;;;;;12.52;76.54;90416.28;4939907;29;20114;-86
2021/07/14 07:49:38;;;;;;;4.00;2.45;;;;;;;12.40;76.02;90412.78;4939662;29;20035;-86
2021/07/14 07:52:05;;;;;;;5.57;2.55;;;;;;;12.29;75.96;90403.25;4939974;28;20043;-86
2021/07/14 07:54:32;;;;;;;5.72;3.00;;;;;;;12.23;77.51;90409.88;4955784;29;20115;-88
2021/07/14 07:56:58;;;;;;;5.68;2.58;;;;;;;12.27;76.80;90413.31;4987797;28;20031;-86
2021/07/14 07:59:25;;;;;;;4.50;2.70;;;;;;;12.42;76.07;90415.78;4956634;28;20031;-86
2021/07/14 08:01:51;;;;;;;4.53;2.80;;;;;;;12.14;75.72;90416.09;4987676;28;20146;-86
2021/07/14 08:04:17;;;;;;;5.60;2.72;;;;;;;12.08;76.57;90411.50;4986969;28;20496;-86
2021/07/14 08:06:43;;;;;;;4.20;2.40;;;;;;;12.20;78.08;90412.09;4954674;28;20667;-86
2021/07/14 08:09:09;;;;;;;3.35;2.35;;;;;;;12.19;77.67;90422.88;4938955;29;20109;-85
2021/07/14 08:11:35;;;;;;;2.80;2.30;;;;;;;12.22;76.79;90416.94;4985237;28;20166;-86
2021/07/14 08:14:00;;;;;;;5.03;2.47;;;;;;;12.30;76.32;90418.59;4935839;29;20499;-85
2021/07/14 08:16:32;;;;;;;3.33;2.30;;;;;;;12.28;77.16;90415.56;4951453;28;20034;-86
2021/07/14 08:19:00;;;;;;;3.22;2.33;;;;;;;12.32;75.71;90413.75;4987387;28;20106;-86
2021/07/14 08:21:26;;;;;;;5.68;2.45;;;;;;;12.23;76.81;90418.47;4987217;28;20093;-86
2021/07/14 08:23:54;;;;;;;6.28;2.72;;;;;;;12.27;76.80;90418.53;4938984;29;20027;-85
2021/07/14 08:26:28;;;;;;;3.13;2.30;;;;;;;12.46;77.51;90420.31;4965306;28;20034;-87
2021/07/14 08:28:55;;;;;;;6.55;2.67;;;;;;;12.36;76.96;90424.25;4971100;28;20038;-86
2021/07/14 08:31:24;;;;;;;4.68;2.78;;;;;;;12.46;77.69;90415.81;4953780;28;20030;-86
2021/07/14 08:33:50;;;;;;;4.75;2.67;;;;;;;12.52;77.33;90411.06;4955240;29;20054;-86
2021/07/14 08:36:17;;;;;;;5.80;2.53;;;;;;;12.50;75.71;90405.44;4955894;29;20106;-86
2021/07/14 08:38:44;;;;;;;3.47;2.22;;;;;;;12.71;77.69;90413.56;4946608;28;20034;-85
2021/07/14 08:41:10;;;;;;;5.57;3.03;;;;;;;12.65;79.00;90412.38;4939448;29;20031;-86
2021/07/14 08:43:42;;;;;;;7.60;3.95;;;;;;;12.68;76.15;90415.06;4955723;28;20027;-86
2021/07/14 08:46:10;;;;;;;5.57;2.72;;;;;;;12.71;77.29;90424.03;4952223;28;20397;-85
2021/07/14 08:48:36;;;;;;;5.72;2.55;;;;;;;12.82;77.30;90427.53;4964299;28;20051;-86
2021/07/14 08:51:04;;;;;;;7.43;2.70;;;;;;;12.48;76.61;90423.34;4986406;28;20030;-86
2021/07/14 08:53:31;;;;;;;7.63;3.40;;;;;;;12.28;75.18;90433.09;4955429;28;20027;-84
2021/07/14 08:56:00;;;;;;;4.13;3.08;;;;;;;12.34;75.64;90429.84;4955251;29;20042;-85
2021/07/14 08:58:28;;;;;;;6.07;2.92;;;;;;;12.16;77.61;90440.00;4953964;29;20032;-85
2021/07/14 09:00:57;;;;;;;8.90;4.95;;;;;;;12.19;77.07;90435.94;4986723;28;20479;-86
2021/07/14 09:03:28;;;;;;;8.57;3.80;;;;;;;12.49;75.85;90436.03;4954885;28;20034;-86
2021/07/14 09:06:00;;;;;;;4.85;2.65;;;;;;;12.78;72.34;90431.97;5050490;23;20046;-85
2021/07/14 09:08:30;;;;;;;4.28;2.70;;;;;;;12.92;71.53;90434.78;5017084;28;20034;-85
2021/07/14 09:10:58;;;;;;;5.82;2.45;;;;;;;13.17;71.40;90436.97;4999099;28;20118;-85
2021/07/14 09:13:40;;;;;;;5.07;2.80;;;;;;;13.10;72.40;90442.13;4999982;28;20537;-84
2021/07/14 09:16:08;;;;;;;4.13;2.90;;;;;;;13.08;70.28;90449.56;4994817;28;20034;-85
2021/07/14 09:18:38;;;;;;;3.72;2.20;;;;;;;13.32;73.77;90443.94;5010767;28;20023;-85
2021/07/14 09:21:14;;;;;;;4.50;2.40;;;;;;;13.34;71.02;90457.41;4994912;28;20433;-85
2021/07/14 09:23:44;;;;;;;4.05;2.15;;;;;;;13.44;70.22;90465.75;5014968;28;20026;-85
2021/07/14 09:26:12;;;;;;;2.97;2.17;;;;;;;13.35;69.95;90458.91;5014834;28;20022;-85
2021/07/14 09:28:42;;;;;;;2.83;1.90;;;;;;;13.69;69.27;90461.56;4998414;28;20160;-85
2021/07/14 09:31:12;;;;;;;2.78;1.98;;;;;;;13.68;70.58;90469.78;5013097;28;20022;-83
2021/07/14 09:33:43;;;;;;;3.60;2.45;;;;;;;13.76;69.82;90464.25;4994277;28;20117;-85
2021/07/14 09:36:09;;;;;;;6.82;2.30;;;;;;;13.83;69.20;90472.19;5009918;28;20034;-84
2021/07/14 09:38:39;;;;;;;4.00;2.15;;;;;;;13.94;69.06;90476.78;5010743;28;20036;-84
2021/07/14 09:41:16;;;;;;;3.20;2.28;;;;;;;14.19;70.03;90475.16;5010870;28;20022;-85
2021/07/14 09:43:43;;;;;;;3.53;2.03;;;;;;;14.12;67.70;90472.47;4994579;28;20030;-85
2021/07/14 09:46:14;;;;;;;4.53;2.15;;;;;;;14.23;69.38;90477.81;5025777;28;20022;-85
2021/07/14 09:48:49;;;;;;;3.75;2.00;;;;;;;14.20;68.50;90468.81;5013293;28;20053;-85
2021/07/14 09:51:25;;;;;;;4.72;2.10;;;;;;;14.40;67.51;90473.88;5013361;28;20100;-85
2021/07/14 09:53:55;;;;;;;3.08;2.30;;;;;;;14.27;67.46;90476.75;5012636;28;20121;-85
2021/07/14 09:56:26;;;;;;;5.72;2.30;;;;;;;14.09;67.34;90481.06;4997153;28;20037;-85
2021/07/14 09:59:06;;;;;;;5.10;2.35;;;;;;;14.17;67.21;90484.50;5011826;28;20054;-85
2021/07/14 10:01:46;;;;;;;5.00;2.30;;;;;;;14.11;68.55;90491.94;4995269;28;20140;-85
2021/07/14 10:04:18;;;;;;;2.85;2.17;;;;;;;14.17;67.72;90501.00;5012504;28;20029;-85
2021/07/14 10:06:44;;;;;;;3.85;2.10;;;;;;;14.29;67.89;90495.50;4996361;28;20088;-85
2021/07/14 10:09:13;;;;;;;2.83;2.17;;;;;;;14.56;67.85;90493.53;5011341;28;20033;-85
2021/07/14 10:11:42;;;;;;;3.42;2.10;;;;;;;14.66;67.66;90501.81;4979285;28;20026;-84
2021/07/14 10:14:09;;;;;;;2.63;2.20;;;;;;;14.79;66.73;90489.94;5011710;28;20036;-83
2021/07/14 10:16:41;;;;;;;4.40;2.30;;;;;;;14.89;65.71;90496.41;4995766;28;20160;-85
2021/07/14 10:19:15;;;;;;;3.33;2.47;;;;;;;14.81;65.86;90498.97;5013217;28;20029;-85
2021/07/14 10:21:43;;;;;;;3.95;2.05;;;;;;;15.01;65.01;90498.72;4995770;28;20018;-85
2021/07/14 10:24:12;;;;;;;5.00;2.30;;;;;;;15.14;64.27;90497.31;4994864;28;20633;-85
2021/07/14 10:26:44;;;;;;;4.35;2.30;;;;;;;14.99;64.30;90498.34;5005985;28;20448;-84
2021/07/14 10:29:16;;;;;;;5.32;2.35;;;;;;;15.16;64.04;90494.31;4995313;28;20560;-83
2021/07/14 10:31:42;;;;;;;3.45;2.60;;;;;;;15.30;66.70;90489.94;5006806;28;20779;-85
2021/07/14 10:34:08;;;;;;;3.80;2.20;;;;;;;15.49;64.00;90493.41;4975496;28;20118;-84
2021/07/14 10:36:37;;;;;;;4.28;2.17;;;;;;;15.54;63.59;90487.78;4975902;28;20053;-86
2021/07/14 10:39:11;;;;;;;5.30;2.92;;;;;;;15.60;63.41;90491.56;4991830;28;20391;-85
2021/07/14 10:41:36;;;;;;;3.63;2.20;;;;;;;15.66;63.36;90490.13;4975895;28;20022;-84
2021/07/14 10:44:04;;;;;;;3.83;2.60;;;;;;;15.78;63.26;90492.44;4991468;28;20402;-85
2021/07/14 10:46:30;;;;;;;3.45;1.98;;;;;;;15.79;61.65;90493.16;5011489;28;20289;-85
2021/07/14 10:48:57;;;;;;;4.15;2.30;;;;;;;15.68;62.61;90495.00;5011132;28;20497;-86
2021/07/14 10:51:23;;;;;;;3.92;1.95;;;;;;;15.90;62.34;90490.59;5011049;28;20112;-85
2021/07/14 10:53:50;;;;;;;3.50;2.00;;;;;;;15.90;62.52;90507.13;5014145;28;20029;-85
2021/07/14 10:56:15;;;;;;;3.03;1.85;;;;;;;15.86;61.73;90498.44;4994520;28;20026;-85
2021/07/14 10:58:41;;;;;;;2.75;1.60;;;;;;;15.94;59.92;90496.63;5011302;28;20064;-85
2021/07/14 11:01:07;;;;;;;4.20;1.90;;;;;;;16.01;60.43;90496.66;4994754;28;20038;-85
2021/07/14 11:03:33;;;;;;;3.70;2.30;;;;;;;16.01;60.74;90505.28;5010890;28;20472;-85
2021/07/14 11:05:59;;;;;;;2.78;1.83;;;;;;;16.16;59.86;90502.69;5012067;28;20101;-85
2021/07/14 11:08:49;;;;;;;3.47;1.70;;;;;;;15.97;57.45;90501.13;4994999;28;20026;-85
2021/07/14 11:11:22;;;;;;;2.13;1.70;;;;;;;16.09;60.14;90500.78;5010781;28;20106;-85
2021/07/14 11:14:04;;;;;;;4.13;1.77;;;;;;;15.69;59.51;90507.03;4997203;28;20033;-85
2021/07/14 11:16:39;;;;;;;3.28;1.90;;;;;;;16.14;61.91;90500.44;4998855;28;20026;-85
2021/07/14 11:19:10;;;;;;;;;;;;;;;16.19;58.77;90505.34;5000335;28;20020;-84
2021/07/14 11:21:56;;;;;;;2.22;1.60;;;;;;;16.31;58.08;90500.84;5014086;28;19913;-85
2021/07/14 11:24:45;;;;;;;3.75;1.70;;;;;;;16.06;59.85;90501.53;5015485;28;20363;-86
2021/07/14 11:27:24;;;;;;;2.65;1.55;;;;;;;16.21;58.57;90497.81;4996131;28;20399;-85
2021/07/14 11:29:50;;;;;;;5.13;1.75;;;;;;;16.41;59.53;90502.75;4995926;28;20033;-85
2021/07/14 11:32:40;;;;;;;2.50;1.65;;;;;;;16.55;58.38;90502.03;4999979;28;20050;-85
2021/07/14 11:35:32;;;;;;;4.50;1.83;;;;;;;16.35;57.12;90504.25;4995932;28;20050;-85
2021/07/14 11:38:02;;;;;;;1.90;1.40;;;;;;;16.48;58.52;90506.16;4995718;28;20416;-85
2021/07/14 11:40:27;;;;;;;2.00;1.50;;;;;;;16.37;56.81;90499.38;4978455;28;20066;-86
2021/07/14 11:42:57;;;;;;;3.65;1.60;;;;;;;16.29;58.73;90500.47;5010900;28;20100;-86
2021/07/14 11:45:26;;;;;;;1.83;1.20;;;;;;;16.64;55.94;90497.13;5013727;28;20030;-85
2021/07/14 11:48:01;;;;;;;1.98;1.30;;;;;;;16.81;55.48;90495.69;5015217;28;20039;-86
2021/07/14 11:50:42;;;;;;;2.10;1.20;;;;;;;17.15;55.51;90494.16;4997180;28;20113;-85
2021/07/14 11:53:30;;;;;;;2.97;1.35;;;;;;;17.25;55.68;90497.19;5013447;28;20038;-84
2021/07/14 11:56:26;;;;;;;2.78;1.13;;;;;;;16.76;53.22;90501.34;4997820;28;20172;-85
2021/07/14 11:59:11;;;;;;;5.40;0.98;;;;;;;17.12;55.82;90494.91;5015710;28;20025;-85
2021/07/14 12:01:51;;;;;;;3.67;1.10;;;;;;;17.04;54.43;90496.06;5013649;28;20030;-86
2021/07/14 12:04:17;;;;;;;1.98;0.90;;;;;;;17.08;55.02;90488.16;5014884;28;20050;-85
2021/07/14 12:06:46;;;;;;;1.58;0.90;;;;;;;16.98;53.12;90487.03;4997361;28;20068;-85
2021/07/14 12:09:12;;;;;;;4.13;1.20;;;;;;;16.97;55.78;90482.91;5013547;28;20053;-86
2021/07/14 12:11:54;;;;;;;1.52;1.00;;;;;;;16.97;54.24;90485.53;5014674;28;20064;-85
2021/07/14 12:14:24;;;;;;;1.65;1.05;;;;;;;17.10;55.59;90483.25;4998985;28;20018;-85
2021/07/14 12:16:54;;;;;;;1.50;1.00;;;;;;;17.05;55.78;90484.41;4996950;28;20022;-85